Time;durP1;ratioP1;P1;durP2;ratioP2;P2;SDS_P1;SDS_P2;PMS_P1;PMS_P2;Temp;Humidity;BMP_temperature;BMP_pressure;BME280_temperature;BME280_humidity;BME280_pressure;Samples;Min_cycle;Max_cycle;Signal;HPM_P1;HPM_P2
2023/04/02 00:01:51;;;;;;;3.92;2.63;;;14.60;54.80;;;;;;5085695;28;46398;-69
2023/04/02 00:04:21;;;;;;;4.38;3.08;;;14.60;54.80;;;;;;5085687;28;45301;-69
2023/04/02 00:06:53;;;;;;;5.22;3.10;;;14.60;54.80;;;;;;5085630;28;45353;-70
2023/04/02 00:09:31;;;;;;;3.72;2.83;;;14.60;54.80;;;;;;5085870;28;45246;-69
2023/04/02 00:11:59;;;;;;;4.72;2.80;;;14.60;54.80;;;;;;5085479;28;46335;-69
2023/04/02 00:14:27;;;;;;;4.15;3.00;;;14.60;55.40;;;;;;5085182;28;45333;-69
2023/04/02 00:16:55;;;;;;;4.75;3.20;;;14.60;54.80;;;;;;5085619;28;45234;-69
2023/04/02 00:19:27;;;;;;;4.22;3.22;;;14.50;54.90;;;;;;5086660;27;45544;-69
2023/04/02 00:21:54;;;;;;;3.25;2.70;;;14.50;54.90;;;;;;5088971;28;46380;-69
2023/04/02 00:24:21;;;;;;;4.38;3.20;;;14.50;54.80;;;;;;5089081;28;45277;-69
2023/04/02 00:26:48;;;;;;;3.83;3.03;;;14.50;54.90;;;;;;5088738;28;45288;-69
2023/04/02 00:29:16;;;;;;;3.22;2.60;;;14.50;54.90;;;;;;5089238;28;45388;-69
2023/04/02 00:31:44;;;;;;;5.00;3.03;;;14.50;55.00;;;;;;5088899;28;45501;-69
2023/04/02 00:34:16;;;;;;;4.60;3.35;;;14.50;55.00;;;;;;5088917;28;45332;-69
2023/04/02 00:36:45;;;;;;;3.25;2.42;;;14.50;55.00;;;;;;5088931;28;45407;-69
2023/04/02 00:39:17;;;;;;;4.95;3.10;;;14.50;55.00;;;;;;5089048;28;45546;-69
2023/04/02 00:41:45;;;;;;;5.30;3.28;;;14.40;55.00;;;;;;5088746;28;45432;-69
2023/04/02 00:44:12;;;;;;;3.92;2.75;;;14.40;55.00;;;;;;5088702;28;45340;-69
2023/04/02 00:46:45;;;;;;;3.13;2.80;;;14.40;55.00;;;;;;5088706;28;45410;-69
2023/04/02 00:49:17;;;;;;;3.92;2.70;;;14.40;55.00;;;;;;5088881;28;45396;-69
2023/04/02 00:51:48;;;;;;;4.85;3.03;;;14.40;55.00;;;;;;5088537;28;45528;-69
2023/04/02 00:54:14;;;;;;;4.50;3.50;;;14.40;55.00;;;;;;5088520;28;45350;-69
2023/04/02 00:56:43;;;;;;;5.50;3.22;;;14.40;55.00;;;;;;5088638;28;45367;-69
2023/04/02 00:59:17;;;;;;;4.15;3.00;;;14.40;55.10;;;;;;5088698;28;45231;-69
2023/04/02 01:01:44;;;;;;;3.30;2.60;;;14.40;55.10;;;;;;5088294;28;46396;-69
2023/04/02 01:04:25;;;;;;;2.50;2.30;;;14.40;55.10;;;;;;5088564;28;45276;-69
2023/04/02 01:06:54;;;;;;;3.78;2.67;;;14.40;55.10;;;;;;5088431;28;45350;-69
2023/04/02 01:09:25;;;;;;;3.50;2.60;;;14.30;55.00;;;;;;5088636;28;45529;-69
2023/04/02 01:11:59;;;;;;;4.18;2.60;;;14.30;55.00;;;;;;5088294;28;46617;-69
2023/04/02 01:14:37;;;;;;;3.85;2.70;;;14.30;55.10;;;;;;5088343;28;45384;-69
2023/04/02 01:17:07;;;;;;;3.33;2.63;;;14.30;55.00;;;;;;5088265;28;45486;-69
2023/04/02 01:20:05;;;;;;;4.07;2.50;;;14.30;55.00;;;;;;5088635;28;45214;-69
2023/04/02 01:22:34;;;;;;;4.28;2.58;;;14.30;55.00;;;;;;5088124;28;45607;-69
2023/04/02 01:25:03;;;;;;;3.15;2.63;;;14.30;55.00;;;;;;5088029;28;45375;-69
2023/04/02 01:27:32;;;;;;;3.22;2.75;;;14.30;55.00;;;;;;5088231;28;45397;-69
2023/04/02 01:30:00;;;;;;;2.47;2.25;;;14.30;55.00;;;;;;5088310;28;45388;-69
2023/04/02 01:32:28;;;;;;;2.90;2.33;;;14.30;55.00;;;;;;5087907;28;45340;-69
2023/04/02 01:34:55;;;;;;;3.95;2.78;;;14.30;55.00;;;;;;5088057;28;45226;-69
2023/04/02 01:37:31;;;;;;;3.33;2.33;;;14.30;55.10;;;;;;5087932;28;45310;-69
2023/04/02 01:40:10;;;;;;;3.72;2.50;;;14.30;55.10;;;;;;5088125;28;45371;-69
2023/04/02 01:42:38;;;;;;;4.03;2.55;;;14.30;55.00;;;;;;5087813;28;47555;-69
2023/04/02 01:45:09;;;;;;;5.38;2.85;;;14.30;55.10;;;;;;5087879;28;45362;-69
2023/04/02 01:47:37;;;;;;;2.45;2.10;;;14.30;55.60;;;;;;5087889;28;45300;-69
2023/04/02 01:50:08;;;;;;;4.93;2.90;;;14.30;55.10;;;;;;5088124;28;45262;-69
2023/04/02 01:52:37;;;;;;;2.95;2.28;;;14.30;55.10;;;;;;5087699;28;46349;-69
2023/04/02 01:55:04;;;;;;;3.53;2.33;;;14.30;55.10;;;;;;5087682;28;45258;-69
2023/04/02 01:57:31;;;;;;;3.20;2.22;;;14.20;55.00;;;;;;5087765;28;45438;-69
2023/04/02 02:00:00;;;;;;;2.75;2.30;;;14.20;55.10;;;;;;5087781;28;45425;-69
2023/04/02 02:02:28;;;;;;;4.00;2.28;;;14.20;55.00;;;;;;5087394;28;45325;-69
2023/04/02 02:04:55;;;;;;;3.28;2.20;;;14.20;55.10;;;;;;5087505;28;45412;-69
2023/04/02 02:07:23;;;;;;;2.90;2.13;;;14.20;55.10;;;;;;5087550;28;45321;-69
2023/04/02 02:09:49;;;;;;;3.03;2.10;;;14.20;55.10;;;;;;5087769;28;45416;-69
2023/04/02 02:12:16;;;;;;;3.65;2.65;;;14.20;55.10;;;;;;5087317;28;46667;-69
2023/04/02 02:14:46;;;;;;;2.65;2.38;;;14.20;55.10;;;;;;5087403;28;45266;-69
2023/04/02 02:17:14;;;;;;;2.83;2.20;;;14.20;55.10;;;;;;5087374;28;45372;-69
2023/04/02 02:19:43;;;;;;;4.43;2.40;;;14.20;55.10;;;;;;5087483;28;45299;-69
2023/04/02 02:22:12;;;;;;;3.85;2.45;;;14.20;55.10;;;;;;5087258;28;47531;-69
2023/04/02 02:24:39;;;;;;;3.95;2.58;;;14.20;55.10;;;;;;5087139;28;45314;-69
2023/04/02 02:27:42;;;;;;;3.70;2.20;;;14.20;55.20;;;;;;5087109;28;45324;-69
2023/04/02 02:30:12;;;;;;;3.28;1.98;;;14.20;55.10;;;;;;5080443;28;45443;-69
2023/04/02 02:32:41;;;;;;;3.80;2.13;;;14.20;55.20;;;;;;5086958;28;45271;-69
2023/04/02 02:35:12;;;;;;;4.07;2.30;;;14.20;55.20;;;;;;5087005;28;45443;-69
2023/04/02 02:37:41;;;;;;;3.60;2.50;;;14.20;55.10;;;;;;5087038;28;45333;-69
2023/04/02 02:40:11;;;;;;;3.13;2.05;;;14.20;55.10;;;;;;5087120;28;45313;-69
2023/04/02 02:42:39;;;;;;;3.33;2.28;;;14.20;55.10;;;;;;5086260;28;46680;-69
2023/04/02 02:45:10;;;;;;;3.03;2.15;;;14.20;55.10;;;;;;5086904;28;45366;-69
2023/04/02 02:47:37;;;;;;;2.25;1.83;;;14.20;55.20;;;;;;5086881;28;45269;-69
2023/04/02 02:50:06;;;;;;;3.47;2.53;;;14.10;55.10;;;;;;5087077;28;45450;-69
2023/04/02 02:52:35;;;;;;;3.13;2.17;;;14.20;55.20;;;;;;5086638;28;45592;-68
2023/04/02 02:55:03;;;;;;;3.75;2.20;;;14.10;55.10;;;;;;5086732;28;45250;-69
2023/04/02 02:57:31;;;;;;;2.90;2.10;;;14.10;55.10;;;;;;5086803;28;45380;-69
2023/04/02 02:59:58;;;;;;;2.85;2.22;;;14.10;55.20;;;;;;5086970;28;45499;-68
2023/04/02 03:02:26;;;;;;;2.45;2.08;;;14.10;55.10;;;;;;5086592;28;45359;-68
2023/04/02 03:04:53;;;;;;;2.92;2.35;;;14.10;55.10;;;;;;5086572;28;45242;-69
2023/04/02 03:07:20;;;;;;;3.22;2.40;;;14.10;55.20;;;;;;5086708;28;45384;-68
2023/04/02 03:09:54;;;;;;;3.30;2.17;;;14.10;55.30;;;;;;5086992;28;45432;-69
2023/04/02 03:12:38;;;;;;;2.60;2.05;;;14.10;55.20;;;;;;5086366;28;45556;-69
2023/04/02 03:15:11;;;;;;;2.47;1.80;;;14.10;55.20;;;;;;5086521;28;45254;-68
2023/04/02 03:17:39;;;;;;;2.38;1.90;;;14.10;55.20;;;;;;5086426;28;45197;-69
2023/04/02 03:20:10;;;;;;;2.55;2.00;;;14.10;55.80;;;;;;5086592;28;45425;-69
2023/04/02 03:22:38;;;;;;;2.15;1.80;;;14.10;55.20;;;;;;5086203;28;46671;-69
2023/04/02 03:25:13;;;;;;;2.55;1.75;;;14.10;55.20;;;;;;5086068;28;45250;-69
2023/04/02 03:27:41;;;;;;;3.22;2.05;;;14.10;55.30;;;;;;5086329;28;45557;-69
2023/04/02 03:30:22;;;;;;;3.92;2.10;;;14.10;55.20;;;;;;5086557;28;45305;-69
2023/04/02 03:32:49;;;;;;;2.13;1.73;;;14.10;55.20;;;;;;5086007;28;45239;-69
2023/04/02 03:35:19;;;;;;;1.83;1.73;;;14.10;55.20;;;;;;5086033;28;45241;-69
2023/04/02 03:37:48;;;;;;;2.78;2.10;;;14.10;55.20;;;;;;5086053;28;45342;-69
2023/04/02 03:40:18;;;;;;;2.72;1.95;;;14.10;55.10;;;;;;5086341;28;45338;-69
2023/04/02 03:42:47;;;;;;;3.40;2.05;;;14.10;55.20;;;;;;5086005;28;47595;-69
2023/04/02 03:45:16;;;;;;;2.83;2.00;;;14.10;55.20;;;;;;5086100;28;45250;-69
2023/04/02 03:47:44;;;;;;;2.33;1.58;;;14.00;55.30;;;;;;5085993;28;45389;-69
2023/04/02 03:50:13;;;;;;;1.83;1.55;;;14.00;55.20;;;;;;5086216;28;45256;-69
2023/04/02 03:52:40;;;;;;;2.03;1.80;;;14.00;55.20;;;;;;5085701;28;45433;-69
2023/04/02 03:55:14;;;;;;;1.52;1.40;;;14.00;55.30;;;;;;5084620;28;45344;-69
2023/04/02 03:57:43;;;;;;;1.50;1.40;;;14.00;55.30;;;;;;5085767;28;45318;-69
2023/04/02 04:00:15;;;;;;;2.05;1.60;;;14.00;55.30;;;;;;5086134;28;45422;-69
2023/04/02 04:02:43;;;;;;;1.60;1.50;;;14.00;55.20;;;;;;5085605;28;45716;-69
2023/04/02 04:05:20;;;;;;;2.45;1.83;;;14.00;55.20;;;;;;5085712;28;45265;-69
2023/04/02 04:07:47;;;;;;;3.17;1.67;;;14.00;55.30;;;;;;5085698;28;45281;-69
2023/04/02 04:10:17;;;;;;;2.47;1.88;;;14.00;55.20;;;;;;5085923;28;45388;-69
2023/04/02 04:12:46;;;;;;;2.60;1.60;;;14.00;55.20;;;;;;5085497;28;45391;-69
2023/04/02 04:15:16;;;;;;;2.70;1.48;;;14.00;55.20;;;;;;5085611;28;45252;-69
2023/04/02 04:17:50;;;;;;;1.85;1.65;;;14.00;55.20;;;;;;5085530;28;45309;-68
2023/04/02 04:20:20;;;;;;;1.42;1.30;;;14.00;55.20;;;;;;5085655;28;45554;-69
2023/04/02 04:22:48;;;;;;;3.05;1.65;;;14.00;55.20;;;;;;5085402;28;45776;-69
2023/04/02 04:25:21;;;;;;;1.83;1.65;;;14.00;55.20;;;;;;5085225;28;45355;-69
2023/04/02 04:27:55;;;;;;;3.28;1.40;;;14.00;55.20;;;;;;5085456;28;45194;-68
2023/04/02 04:30:24;;;;;;;2.42;1.60;;;13.90;55.20;;;;;;5085743;28;45317;-69
2023/04/02 04:32:56;;;;;;;3.20;1.88;;;14.00;55.30;;;;;;5085223;28;46651;-68
2023/04/02 04:35:25;;;;;;;2.15;1.70;;;13.90;55.80;;;;;;5085316;28;45340;-69
2023/04/02 04:37:57;;;;;;;1.70;1.60;;;14.00;55.10;;;;;;5085419;28;45493;-69
2023/04/02 04:40:24;;;;;;;2.20;1.88;;;14.00;55.10;;;;;;5085458;28;45304;-69
2023/04/02 04:42:55;;;;;;;2.78;1.92;;;14.00;55.10;;;;;;5085113;28;45427;-69
2023/04/02 04:45:34;;;;;;;1.83;1.33;;;14.00;55.10;;;;;;5085145;28;45262;-69
2023/04/02 04:48:02;;;;;;;1.50;1.30;;;13.90;55.00;;;;;;5085232;28;45412;-69
2023/04/02 04:50:32;;;;;;;2.15;1.70;;;14.00;55.60;;;;;;5085500;28;45352;-69
2023/04/02 04:53:05;;;;;;;2.80;1.63;;;14.00;55.10;;;;;;5084984;28;45492;-69
2023/04/02 04:55:36;;;;;;;2.47;1.48;;;13.90;55.10;;;;;;5085042;28;45166;-69
2023/04/02 04:58:09;;;;;;;2.40;1.60;;;13.90;55.00;;;;;;5085042;28;45325;-69
2023/04/02 05:00:41;;;;;;;1.80;1.38;;;13.90;55.00;;;;;;5085206;28;45329;-69
2023/04/02 05:03:15;;;;;;;1.77;1.40;;;13.90;55.00;;;;;;5084882;28;47497;-69
2023/04/02 05:05:42;;;;;;;2.28;1.48;;;13.90;55.10;;;;;;5086133;27;45341;-69
2023/04/02 05:08:11;;;;;;;1.70;1.45;;;13.90;55.10;;;;;;5088586;28;45275;-69
2023/04/02 05:10:41;;;;;;;1.52;1.30;;;13.90;55.10;;;;;;5088640;28;45361;-69
2023/04/02 05:13:11;;;;;;;2.00;1.73;;;13.90;55.10;;;;;;5088102;28;45584;-68
2023/04/02 05:15:40;;;;;;;1.77;1.33;;;13.90;55.10;;;;;;5088303;28;45433;-69
2023/04/02 05:18:16;;;;;;;1.38;1.27;;;13.90;55.10;;;;;;5088319;28;45260;-68
2023/04/02 05:20:46;;;;;;;1.52;1.17;;;13.90;55.10;;;;;;5088397;28;45290;-69
2023/04/02 05:23:15;;;;;;;1.52;1.23;;;13.90;55.10;;;;;;5088208;28;47572;-69
2023/04/02 05:25:50;;;;;;;2.50;1.48;;;13.90;55.00;;;;;;5087881;28;45321;-69
2023/04/02 05:28:20;;;;;;;1.92;1.20;;;13.90;55.00;;;;;;5088115;28;45320;-69
2023/04/02 05:30:51;;;;;;;2.30;1.30;;;13.90;55.00;;;;;;5088393;28;45397;-68
2023/04/02 05:33:22;;;;;;;1.42;1.27;;;13.90;55.00;;;;;;5087941;28;46547;-69
2023/04/02 05:35:53;;;;;;;1.70;1.13;;;13.90;55.10;;;;;;5087890;28;45372;-68
2023/04/02 05:38:20;;;;;;;1.25;1.15;;;13.90;55.00;;;;;;5088102;28;45316;-68
2023/04/02 05:40:48;;;;;;;1.40;1.30;;;13.90;55.00;;;;;;5088127;28;45423;-69
2023/04/02 05:43:16;;;;;;;1.17;1.02;;;13.90;55.10;;;;;;5087715;28;45354;-69
2023/04/02 05:45:45;;;;;;;1.20;1.00;;;13.90;55.00;;;;;;5087836;28;45253;-68
2023/04/02 05:48:16;;;;;;;1.33;1.23;;;13.90;55.10;;;;;;5087909;28;45301;-68
2023/04/02 05:50:45;;;;;;;1.23;1.05;;;13.90;55.10;;;;;;5087996;28;45326;-69
2023/04/02 05:53:14;;;;;;;1.08;1.08;;;13.80;55.60;;;;;;5087851;28;47630;-68
2023/04/02 05:55:43;;;;;;;1.35;1.15;;;13.90;55.10;;;;;;5087690;28;45442;-69
2023/04/02 05:58:17;;;;;;;1.45;1.10;;;13.90;55.10;;;;;;5087727;28;45324;-69
2023/04/02 06:01:11;;;;;;;1.10;1.00;;;13.90;55.00;;;;;;5087775;28;45547;-69
2023/04/02 06:03:43;;;;;;;0.95;0.88;;;13.90;55.10;;;;;;5066897;28;46949;-68
2023/04/02 06:06:14;;;;;;;1.38;1.08;;;13.90;55.10;;;;;;5087361;28;45360;-69
2023/04/02 06:08:44;;;;;;;1.70;1.00;;;13.80;55.10;;;;;;5087545;28;45306;-69
2023/04/02 06:11:11;;;;;;;1.00;0.90;;;13.80;55.10;;;;;;5087755;28;45295;-69
2023/04/02 06:13:38;;;;;;;1.38;0.93;;;13.80;55.10;;;;;;5087179;28;46668;-68
2023/04/02 06:16:07;;;;;;;1.13;1.02;;;13.80;55.10;;;;;;5087233;28;45278;-69
2023/04/02 06:18:34;;;;;;;0.90;0.90;;;13.90;55.10;;;;;;5086538;28;45318;-69
2023/04/02 06:21:02;;;;;;;1.00;0.82;;;13.80;55.20;;;;;;5087493;28;45430;-69
2023/04/02 06:23:31;;;;;;;1.48;0.77;;;13.80;55.20;;;;;;5087109;28;46757;-68
2023/04/02 06:26:00;;;;;;;1.17;1.00;;;13.80;55.20;;;;;;5086842;28;45400;-69
2023/04/02 06:28:29;;;;;;;1.80;1.17;;;13.90;55.10;;;;;;5087123;28;45127;-69
2023/04/02 06:30:57;;;;;;;1.25;0.88;;;13.90;55.10;;;;;;5087481;28;45636;-68
2023/04/02 06:33:26;;;;;;;1.40;0.82;;;13.90;55.20;;;;;;5086942;28;46326;-69
2023/04/02 06:35:52;;;;;;;1.38;0.93;;;13.90;55.30;;;;;;5086958;28;45576;-69
2023/04/02 06:38:24;;;;;;;1.08;0.98;;;13.90;55.30;;;;;;5087113;28;45316;-69
2023/04/02 06:40:52;;;;;;;1.10;0.90;;;13.90;55.40;;;;;;5087234;28;45420;-69
2023/04/02 06:43:22;;;;;;;1.08;0.98;;;13.90;55.30;;;;;;5086717;28;45563;-69
2023/04/02 06:45:50;;;;;;;0.93;0.88;;;13.90;55.40;;;;;;5086881;28;45337;-69
2023/04/02 06:48:17;;;;;;;1.42;0.77;;;13.90;55.30;;;;;;5086915;28;45339;-69
2023/04/02 06:50:47;;;;;;;1.88;1.10;;;13.90;55.40;;;;;;5087071;28;45263;-69
2023/04/02 06:53:19;;;;;;;1.00;0.90;;;13.90;55.40;;;;;;5086717;28;46301;-69
2023/04/02 06:55:47;;;;;;;1.17;0.80;;;13.90;55.20;;;;;;5086621;28;45413;-69
2023/04/02 06:58:15;;;;;;;1.02;0.90;;;13.90;55.10;;;;;;5086473;28;45390;-69
2023/04/02 07:00:43;;;;;;;0.75;0.75;;;13.90;55.80;;;;;;5086830;28;45379;-69
2023/04/02 07:03:14;;;;;;;0.82;0.82;;;13.90;55.20;;;;;;5086577;28;45473;-69
2023/04/02 07:05:41;;;;;;;1.95;0.80;;;13.90;55.20;;;;;;5086441;28;45391;-69
2023/04/02 07:08:10;;;;;;;0.70;0.70;;;13.90;55.10;;;;;;5086667;28;45315;-69
2023/04/02 07:10:36;;;;;;;1.08;0.98;;;13.90;55.00;;;;;;5086793;28;45380;-69
2023/04/02 07:13:04;;;;;;;0.98;0.80;;;13.90;55.70;;;;;;5086366;28;45374;-69
2023/04/02 07:15:31;;;;;;;1.17;0.98;;;13.90;55.10;;;;;;5086599;28;45348;-69
2023/04/02 07:17:58;;;;;;;1.90;0.90;;;13.90;55.10;;;;;;5086566;28;45264;-69
2023/04/02 07:20:27;;;;;;;1.27;1.10;;;13.90;55.10;;;;;;5086561;28;45389;-69
2023/04/02 07:22:53;;;;;;;1.48;0.82;;;13.90;55.00;;;;;;5086153;28;46632;-68
2023/04/02 07:25:22;;;;;;;0.80;0.80;;;14.00;55.00;;;;;;5086273;28;45218;-69
2023/04/02 07:27:49;;;;;;;0.70;0.70;;;14.00;54.90;;;;;;5086168;28;45384;-69
2023/04/02 07:30:16;;;;;;;1.05;0.73;;;14.00;54.90;;;;;;5086646;28;45259;-68
2023/04/02 07:32:42;;;;;;;0.70;0.70;;;14.00;54.80;;;;;;5085983;28;46803;-68
2023/04/02 07:35:10;;;;;;;0.75;0.75;;;14.00;54.80;;;;;;5086067;28;45352;-69
2023/04/02 07:37:37;;;;;;;0.70;0.70;;;14.00;54.80;;;;;;5086064;28;45380;-69
2023/04/02 07:40:07;;;;;;;0.60;0.60;;;14.00;54.80;;;;;;5086177;28;45526;-68
2023/04/02 07:42:36;;;;;;;1.08;0.90;;;14.00;54.80;;;;;;5085300;28;45479;-69
2023/04/02 07:45:03;;;;;;;0.93;0.85;;;14.10;54.80;;;;;;5085627;28;45280;-69
2023/04/02 07:47:30;;;;;;;0.73;0.73;;;14.10;54.80;;;;;;5085678;28;45255;-68
2023/04/02 07:49:57;;;;;;;0.80;0.80;;;14.10;54.60;;;;;;5085716;28;45477;-68
2023/04/02 07:52:24;;;;;;;0.95;0.80;;;14.10;54.60;;;;;;5085669;28;46350;-69
2023/04/02 07:54:51;;;;;;;0.65;0.65;;;14.10;54.60;;;;;;5085455;28;45383;-69
2023/04/02 07:57:17;;;;;;;4.10;1.08;;;14.10;54.60;;;;;;5085477;28;45366;-69
2023/04/02 07:59:46;;;;;;;2.90;0.70;;;14.20;55.00;;;;;;5081986;28;45495;-68
2023/04/02 08:02:18;;;;;;;0.90;0.65;;;14.20;55.40;;;;;;5081187;28;45545;-69
2023/04/02 08:04:45;;;;;;;0.75;0.75;;;14.20;54.80;;;;;;5082780;28;45499;-69
2023/04/02 08:07:12;;;;;;;1.30;0.80;;;14.20;54.80;;;;;;5081516;28;45599;-68
2023/04/02 08:09:39;;;;;;;0.73;0.70;;;14.20;54.70;;;;;;5081589;28;45582;-68
2023/04/02 08:12:07;;;;;;;0.85;0.77;;;14.20;54.70;;;;;;5082263;28;46994;-68
2023/04/02 08:14:33;;;;;;;1.00;0.75;;;14.20;54.60;;;;;;5073341;28;45329;-69
2023/04/02 08:17:02;;;;;;;0.80;0.80;;;14.30;54.90;;;;;;5081396;28;45458;-69
2023/04/02 08:19:28;;;;;;;1.20;0.80;;;14.30;54.30;;;;;;5085538;28;45444;-68
2023/04/02 08:21:56;;;;;;;0.90;0.70;;;14.30;54.80;;;;;;5085259;28;45364;-68
2023/04/02 08:24:22;;;;;;;1.13;1.00;;;14.30;54.80;;;;;;5085294;28;45319;-69
2023/04/02 08:26:50;;;;;;;2.65;0.65;;;14.30;54.80;;;;;;5085190;28;45282;-68
2023/04/02 08:29:17;;;;;;;0.80;0.80;;;14.30;55.10;;;;;;5085533;28;45395;-68
2023/04/02 08:31:43;;;;;;;0.63;0.60;;;14.30;55.20;;;;;;5070827;27;45788;-68
2023/04/02 08:34:11;;;;;;;0.65;0.65;;;14.30;55.10;;;;;;5079160;27;45351;-68
2023/04/02 08:36:39;;;;;;;0.57;0.57;;;14.40;55.40;;;;;;5081171;28;45235;-69
2023/04/02 08:39:09;;;;;;;0.63;0.60;;;14.40;55.20;;;;;;5079957;27;45402;-69
2023/04/02 08:41:37;;;;;;;0.70;0.70;;;14.40;55.30;;;;;;5075250;28;46940;-69
2023/04/02 08:44:11;;;;;;;0.68;0.50;;;14.40;55.10;;;;;;5080995;28;45459;-69
2023/04/02 08:46:40;;;;;;;0.93;0.73;;;14.40;55.10;;;;;;5077837;28;45486;-70
2023/04/02 08:49:13;;;;;;;0.40;0.40;;;14.40;55.10;;;;;;5082322;28;45475;-70
2023/04/02 08:51:40;;;;;;;0.47;0.47;;;14.40;55.50;;;;;;5084318;28;46361;-70
2023/04/02 08:54:10;;;;;;;0.70;0.70;;;14.40;55.30;;;;;;5083805;28;45513;-70
2023/04/02 08:56:39;;;;;;;0.35;0.35;;;14.50;55.60;;;;;;5085324;28;45501;-69
2023/04/02 08:59:09;;;;;;;0.90;0.45;;;14.40;55.40;;;;;;5081928;28;45434;-69
2023/04/02 09:01:40;;;;;;;0.88;0.70;;;14.50;56.10;;;;;;5081538;28;45482;-70
2023/04/02 09:04:12;;;;;;;0.60;0.60;;;14.50;55.50;;;;;;5081160;28;45355;-70
2023/04/02 09:06:42;;;;;;;2.40;0.70;;;14.50;55.60;;;;;;5077223;28;45428;-69
2023/04/02 09:09:09;;;;;;;0.80;0.60;;;14.60;55.60;;;;;;5084377;28;45675;-69
2023/04/02 09:11:41;;;;;;;0.63;0.60;;;14.60;55.60;;;;;;5085682;28;45528;-70
2023/04/02 09:14:13;;;;;;;0.52;0.45;;;14.60;55.60;;;;;;5081351;27;45278;-69
2023/04/02 09:16:42;;;;;;;0.70;0.70;;;14.60;55.60;;;;;;5077877;28;45456;-69
2023/04/02 09:19:15;;;;;;;0.90;0.80;;;14.60;55.60;;;;;;5082552;28;45458;-69
2023/04/02 09:21:43;;;;;;;0.60;0.60;;;14.70;55.70;;;;;;5084786;28;46363;-69
2023/04/02 09:24:12;;;;;;;1.55;0.55;;;14.70;55.60;;;;;;5083012;28;45435;-70
2023/04/02 09:26:38;;;;;;;0.77;0.77;;;14.70;55.60;;;;;;5083360;28;45504;-70
2023/04/02 09:29:19;;;;;;;2.08;0.60;;;14.70;55.60;;;;;;5083221;28;45453;-69
2023/04/02 09:31:48;;;;;;;3.25;0.52;;;14.70;55.60;;;;;;5087538;28;46358;-69
2023/04/02 09:34:28;;;;;;;0.47;0.47;;;14.70;55.60;;;;;;5082648;28;45405;-69
2023/04/02 09:36:56;;;;;;;0.60;0.60;;;14.80;55.60;;;;;;5079404;28;45517;-70
2023/04/02 09:39:25;;;;;;;0.50;0.50;;;14.80;55.60;;;;;;5084242;28;45502;-70
2023/04/02 09:41:52;;;;;;;4.15;0.68;;;14.80;55.70;;;;;;5085686;28;45624;-69
2023/04/02 09:44:21;;;;;;;2.60;0.60;;;14.90;55.70;;;;;;5081254;28;45373;-69
2023/04/02 09:46:55;;;;;;;0.80;0.60;;;14.90;56.30;;;;;;5084183;28;45238;-69
2023/04/02 09:49:23;;;;;;;1.30;0.70;;;14.90;55.70;;;;;;5082994;28;45444;-69
2023/04/02 09:52:18;;;;;;;1.30;0.60;;;14.90;55.70;;;;;;5082172;28;45451;-69
2023/04/02 09:54:45;;;;;;;1.20;0.80;;;15.00;55.80;;;;;;5079285;28;45346;-69
2023/04/02 09:57:26;;;;;;;1.73;0.70;;;15.00;55.70;;;;;;5081548;28;47135;-70
2023/04/02 10:00:20;;;;;;;1.20;0.80;;;15.00;55.70;;;;;;5082464;28;45190;-68
2023/04/02 10:02:47;;;;;;;0.75;0.70;;;15.00;55.70;;;;;;5080966;28;45787;-69
2023/04/02 10:05:19;;;;;;;1.38;0.70;;;15.10;55.70;;;;;;5081454;28;45353;-69
2023/04/02 10:07:47;;;;;;;0.70;0.70;;;15.10;55.70;;;;;;5081980;28;45502;-69
2023/04/02 10:10:20;;;;;;;2.78;0.75;;;15.10;55.80;;;;;;5082744;28;45563;-69
2023/04/02 10:12:50;;;;;;;1.70;1.00;;;15.10;55.80;;;;;;5083454;28;47582;-69
2023/04/02 10:15:18;;;;;;;0.77;0.75;;;15.10;55.70;;;;;;5080871;28;45572;-69
2023/04/02 10:17:45;;;;;;;3.22;1.00;;;15.20;55.80;;;;;;5082451;28;45553;-68
2023/04/02 10:20:17;;;;;;;1.00;0.80;;;15.20;55.80;;;;;;5082849;28;45524;-71
2023/04/02 10:22:44;;;;;;;1.05;0.95;;;15.20;55.80;;;;;;5080709;28;45356;-71
2023/04/02 10:25:15;;;;;;;2.03;1.02;;;15.20;55.70;;;;;;5082544;28;45550;-69
2023/04/02 10:27:44;;;;;;;0.90;0.85;;;15.20;55.90;;;;;;5081276;28;45463;-69
2023/04/02 10:30:15;;;;;;;3.08;0.80;;;15.20;55.90;;;;;;5080240;28;45377;-68
2023/04/02 10:32:44;;;;;;;2.00;0.95;;;15.20;55.80;;;;;;5082355;28;45553;-68
2023/04/02 10:35:15;;;;;;;1.55;0.80;;;15.30;55.80;;;;;;5078586;28;45479;-69
2023/04/02 10:38:19;;;;;;;1.52;0.75;;;15.30;55.80;;;;;;5083307;28;45327;-68
2023/04/02 10:40:48;;;;;;;0.73;0.70;;;15.30;55.80;;;;;;5074955;28;45128;-68
2023/04/02 10:43:30;;;;;;;2.53;1.10;;;15.40;55.60;;;;;;5082585;28;45672;-68
2023/04/02 10:46:00;;;;;;;2.50;1.25;;;15.40;55.50;;;;;;5080092;28;45285;-70
2023/04/02 10:48:28;;;;;;;1.58;0.98;;;15.50;55.50;;;;;;5075476;28;45478;-68
2023/04/02 10:50:57;;;;;;;4.43;1.40;;;15.50;55.50;;;;;;5080386;27;45431;-69
2023/04/02 10:53:25;;;;;;;3.85;2.08;;;15.50;55.50;;;;;;5079280;28;47315;-66
2023/04/02 10:55:55;;;;;;;4.47;2.03;;;15.50;55.50;;;;;;5080469;27;45463;-68
2023/04/02 10:58:23;;;;;;;7.03;2.28;;;15.60;55.50;;;;;;5081919;27;45455;-67
2023/04/02 11:00:50;;;;;;;9.57;3.08;;;15.60;55.50;;;;;;5085114;27;45447;-67
2023/04/02 11:03:22;;;;;;;3.60;1.83;;;15.60;55.50;;;;;;5071025;27;46890;-70
2023/04/02 11:05:50;;;;;;;3.25;2.08;;;15.60;55.50;;;;;;5085012;27;45372;-66
2023/04/02 11:08:18;;;;;;;10.70;2.53;;;15.60;55.50;;;;;;5093858;27;45427;-70
2023/04/02 11:10:47;;;;;;;7.07;2.33;;;15.60;55.60;;;;;;5082086;28;45219;-66
2023/04/02 11:13:20;;;;;;;4.95;2.53;;;15.60;55.60;;;;;;5079310;27;46612;-70
2023/04/02 11:15:47;;;;;;;5.20;1.90;;;15.60;55.60;;;;;;5087545;27;45242;-70
2023/04/02 11:18:34;;;;;;;7.93;2.25;;;15.60;55.60;;;;;;5080652;27;45467;-67
2023/04/02 11:21:03;;;;;;;6.80;2.70;;;15.70;55.60;;;;;;5081068;27;45721;-70
2023/04/02 11:23:34;;;;;;;4.90;2.10;;;15.70;55.70;;;;;;5080627;27;45516;-67
2023/04/02 11:26:33;;;;;;;8.40;2.78;;;15.70;55.60;;;;;;5081075;27;45353;-67
2023/04/02 11:29:26;;;;;;;3.70;1.90;;;15.70;55.60;;;;;;5072651;27;45493;-66
2023/04/02 11:32:14;;;;;;;4.68;1.83;;;15.80;55.50;;;;;;5054171;27;45619;-67
2023/04/02 11:35:01;;;;;;;5.20;2.17;;;15.90;55.40;;;;;;5080660;28;46351;-66
2023/04/02 11:37:36;;;;;;;6.45;1.60;;;16.00;55.10;;;;;;5088997;27;45403;-67
2023/04/02 11:40:07;;;;;;;8.25;2.53;;;16.10;55.00;;;;;;5086867;27;45369;-67
2023/04/02 11:42:34;;;;;;;5.07;2.42;;;16.10;55.00;;;;;;5086250;28;45178;-66
2023/04/02 11:45:33;;;;;;;6.10;2.33;;;16.20;54.80;;;;;;5082687;27;47016;-67
2023/04/02 11:48:30;;;;;;;7.78;2.88;;;16.20;54.90;;;;;;5039563;27;45312;-66
2023/04/02 11:50:57;;;;;;;7.75;2.72;;;16.20;54.90;;;;;;5100280;27;45526;-66
2023/04/02 11:53:30;;;;;;;8.05;2.38;;;16.20;55.00;;;;;;5085294;28;45190;-66
2023/04/02 11:56:18;;;;;;;5.65;2.85;;;16.30;55.00;;;;;;5082943;28;45548;-66
2023/04/02 11:58:51;;;;;;;5.40;2.42;;;16.40;54.80;;;;;;5097955;27;45342;-67
2023/04/02 12:01:42;;;;;;;6.22;2.45;;;16.60;55.10;;;;;;5080297;27;45744;-65
2023/04/02 12:04:38;;;;;;;16.00;2.50;;;16.60;54.50;;;;;;5079776;27;45417;-74
2023/04/02 12:07:26;;;;;;;39.85;4.75;;;16.70;54.50;;;;;;5080736;27;46377;-71
2023/04/02 12:09:54;;;;;;;20.75;3.67;;;16.70;54.10;;;;;;5082717;27;45533;-73
2023/04/02 12:12:26;;;;;;;14.25;3.20;;;16.80;54.80;;;;;;5081976;28;45415;-69
2023/04/02 12:14:53;;;;;;;25.48;5.13;;;16.90;54.60;;;;;;5088891;27;45492;-69
2023/04/02 12:17:28;;;;;;;11.93;4.95;;;17.10;54.10;;;;;;5091505;27;46528;-70
2023/04/02 12:19:58;;;;;;;11.95;3.90;;;17.30;54.00;;;;;;5075407;28;45421;-69
2023/04/02 12:22:25;;;;;;;11.75;4.32;;;17.40;53.50;;;;;;5089671;27;45328;-70
2023/04/02 12:24:54;;;;;;;10.38;5.82;;;17.60;53.60;;;;;;5085446;28;45443;-70
2023/04/02 12:27:23;;;;;;;10.48;6.63;;;17.80;53.10;;;;;;5084635;27;46886;-70
2023/04/02 12:29:51;;;;;;;11.23;8.13;;;17.90;52.90;;;;;;5077639;28;45674;-70
2023/04/02 12:32:21;;;;;;;14.27;9.13;;;18.10;52.80;;;;;;5089601;27;45485;-70
2023/04/02 12:34:48;;;;;;;13.90;8.75;;;18.30;52.60;;;;;;5089576;27;45617;-72
2023/04/02 12:37:22;;;;;;;14.10;8.48;;;18.40;52.10;;;;;;5085156;27;45473;-70
2023/04/02 12:39:53;;;;;;;13.43;8.23;;;18.60;51.80;;;;;;5085401;27;45554;-71
2023/04/02 12:42:27;;;;;;;15.27;9.27;;;18.70;51.60;;;;;;5085467;27;45559;-69
2023/04/02 12:44:55;;;;;;;16.75;10.07;;;18.90;51.40;;;;;;5085726;27;45479;-69
2023/04/02 12:47:22;;;;;;;16.13;10.27;;;19.10;51.20;;;;;;5084775;27;47285;-70
2023/04/02 12:49:50;;;;;;;12.88;8.98;;;19.20;51.50;;;;;;5077999;27;45578;-69
2023/04/02 12:52:18;;;;;;;19.55;10.73;;;19.30;50.90;;;;;;5082911;27;45518;-71
2023/04/02 12:54:47;;;;;;;16.35;9.80;;;19.50;50.70;;;;;;5083974;27;45424;-71
2023/04/02 12:57:31;;;;;;;16.60;10.25;;;19.50;50.30;;;;;;5084561;27;46392;-70
2023/04/02 12:59:59;;;;;;;24.33;11.02;;;19.50;50.40;;;;;;5079798;27;45451;-70
2023/04/02 13:02:27;;;;;;;16.83;11.60;;;19.60;51.00;;;;;;5079994;27;45600;-71
2023/04/02 13:04:55;;;;;;;17.70;12.05;;;19.80;50.50;;;;;;5078549;28;45400;-70